sensor_id;sensor_type;location;lat;lon;timestamp;temperature;humidity
24011;DHT22;12217;50.792;4.372;2023-03-15T00:00:04;4.60;99.90
24011;DHT22;12217;50.792;4.372;2023-03-15T00:02:31;4.60;99.90
24011;DHT22;12217;50.792;4.372;2023-03-15T00:04:57;4.70;99.90
24011;DHT22;12217;50.792;4.372;2023-03-15T00:07:22;4.70;99.90
24011;DHT22;12217;50.792;4.372;2023-03-15T00:09:51;4.70;99.90
24011;DHT22;12217;50.792;4.372;2023-03-15T00:12:17;4.70;99.90
24011;DHT22;12217;50.792;4.372;2023-03-15T00:14:43;4.70;99.90
24011;DHT22;12217;50.792;4.372;2023-03-15T00:17:09;4.70;99.90
24011;DHT22;12217;50.792;4.372;2023-03-15T00:19:36;4.80;99.90
24011;DHT22;12217;50.792;4.372;2023-03-15T00:22:01;4.90;99.90
24011;DHT22;12217;50.792;4.372;2023-03-15T00:24:27;5.10;99.90
24011;DHT22;12217;50.792;4.372;2023-03-15T00:26:53;5.30;99.90
24011;DHT22;12217;50.792;4.372;2023-03-15T00:29:18;5.30;99.90
24011;DHT22;12217;50.792;4.372;2023-03-15T00:31:44;5.20;99.90
24011;DHT22;12217;50.792;4.372;2023-03-15T00:34:10;5.30;99.90
24011;DHT22;12217;50.792;4.372;2023-03-15T00:36:39;5.30;99.90
24011;DHT22;12217;50.792;4.372;2023-03-15T00:39:08;5.50;99.90
24011;DHT22;12217;50.792;4.372;2023-03-15T00:41:34;5.60;99.90
24011;DHT22;12217;50.792;4.372;2023-03-15T00:44:00;5.80;99.90
24011;DHT22;12217;50.792;4.372;2023-03-15T00:46:25;5.80;99.90
24011;DHT22;12217;50.792;4.372;2023-03-15T00:48:51;5.30;99.90
24011;DHT22;12217;50.792;4.372;2023-03-15T00:51:19;5.00;99.90
24011;DHT22;12217;50.792;4.372;2023-03-15T00:53:46;4.90;99.90
24011;DHT22;12217;50.792;4.372;2023-03-15T00:56:15;5.00;99.90
24011;DHT22;12217;50.792;4.372;2023-03-15T00:58:41;4.70;99.90
24011;DHT22;12217;50.792;4.372;2023-03-15T01:01:15;4.60;99.90
24011;DHT22;12217;50.792;4.372;2023-03-15T01:03:42;4.60;99.90
24011;DHT22;12217;50.792;4.372;2023-03-15T01:06:13;4.50;99.90
24011;DHT22;12217;50.792;4.372;2023-03-15T01:08:39;4.60;99.90
24011;DHT22;12217;50.792;4.372;2023-03-15T01:11:08;4.90;99.90
24011;DHT22;12217;50.792;4.372;2023-03-15T01:13:34;5.10;99.90
24011;DHT22;12217;50.792;4.372;2023-03-15T01:16:00;5.20;99.90
24011;DHT22;12217;50.792;4.372;2023-03-15T01:18:26;5.20;99.90
24011;DHT22;12217;50.792;4.372;2023-03-15T01:20:52;5.10;99.90
24011;DHT22;12217;50.792;4.372;2023-03-15T01:23:17;5.10;99.90
24011;DHT22;12217;50.792;4.372;2023-03-15T01:25:43;5.00;99.90
24011;DHT22;12217;50.792;4.372;2023-03-15T01:28:09;5.00;99.90
24011;DHT22;12217;50.792;4.372;2023-03-15T01:30:34;5.00;99.90
24011;DHT22;12217;50.792;4.372;2023-03-15T01:33:00;5.10;99.90
24011;DHT22;12217;50.792;4.372;2023-03-15T01:35:26;5.30;99.90
24011;DHT22;12217;50.792;4.372;2023-03-15T01:37:52;5.40;99.90
24011;DHT22;12217;50.792;4.372;2023-03-15T01:40:17;5.50;99.90
24011;DHT22;12217;50.792;4.372;2023-03-15T01:42:51;5.50;99.90
24011;DHT22;12217;50.792;4.372;2023-03-15T01:48:23;5.50;99.90
24011;DHT22;12217;50.792;4.372;2023-03-15T01:50:50;5.50;99.90
24011;DHT22;12217;50.792;4.372;2023-03-15T01:53:20;5.70;99.90
24011;DHT22;12217;50.792;4.372;2023-03-15T01:55:46;5.70;99.90
24011;DHT22;12217;50.792;4.372;2023-03-15T01:58:12;5.90;99.90
24011;DHT22;12217;50.792;4.372;2023-03-15T02:00:38;5.90;99.90
24011;DHT22;12217;50.792;4.372;2023-03-15T02:03:13;5.90;99.90
24011;DHT22;12217;50.792;4.372;2023-03-15T02:05:43;5.90;99.90
24011;DHT22;12217;50.792;4.372;2023-03-15T02:08:10;6.00;99.90
24011;DHT22;12217;50.792;4.372;2023-03-15T02:10:41;6.10;99.90
24011;DHT22;12217;50.792;4.372;2023-03-15T02:13:08;6.00;99.90
24011;DHT22;12217;50.792;4.372;2023-03-15T02:15:34;6.20;99.90
24011;DHT22;12217;50.792;4.372;2023-03-15T02:18:00;6.30;99.90
24011;DHT22;12217;50.792;4.372;2023-03-15T02:20:53;6.20;99.90
24011;DHT22;12217;50.792;4.372;2023-03-15T02:23:24;6.30;99.90
24011;DHT22;12217;50.792;4.372;2023-03-15T02:28:35;5.90;99.90
24011;DHT22;12217;50.792;4.372;2023-03-15T02:31:01;5.50;99.90
24011;DHT22;12217;50.792;4.372;2023-03-15T02:33:30;5.50;99.90
24011;DHT22;12217;50.792;4.372;2023-03-15T02:36:08;5.60;99.90
24011;DHT22;12217;50.792;4.372;2023-03-15T02:38:35;5.60;99.90
24011;DHT22;12217;50.792;4.372;2023-03-15T02:41:01;5.60;99.90
24011;DHT22;12217;50.792;4.372;2023-03-15T02:43:30;5.70;99.90
24011;DHT22;12217;50.792;4.372;2023-03-15T02:45:58;5.90;99.90
24011;DHT22;12217;50.792;4.372;2023-03-15T02:48:24;6.00;99.90
24011;DHT22;12217;50.792;4.372;2023-03-15T02:50:50;6.10;99.90
24011;DHT22;12217;50.792;4.372;2023-03-15T02:53:15;6.20;99.90
24011;DHT22;12217;50.792;4.372;2023-03-15T02:55:41;6.30;99.90
24011;DHT22;12217;50.792;4.372;2023-03-15T02:58:07;6.50;99.90
24011;DHT22;12217;50.792;4.372;2023-03-15T03:00:32;6.40;99.90
24011;DHT22;12217;50.792;4.372;2023-03-15T03:02:58;6.20;99.90
24011;DHT22;12217;50.792;4.372;2023-03-15T03:05:24;6.30;99.90
24011;DHT22;12217;50.792;4.372;2023-03-15T03:07:49;6.30;99.90
24011;DHT22;12217;50.792;4.372;2023-03-15T03:10:17;6.20;99.90
24011;DHT22;12217;50.792;4.372;2023-03-15T03:12:43;6.10;99.90
24011;DHT22;12217;50.792;4.372;2023-03-15T03:15:09;5.80;99.90
24011;DHT22;12217;50.792;4.372;2023-03-15T03:17:36;5.90;99.90
24011;DHT22;12217;50.792;4.372;2023-03-15T03:20:05;5.90;99.90
24011;DHT22;12217;50.792;4.372;2023-03-15T03:22:35;6.10;99.90
24011;DHT22;12217;50.792;4.372;2023-03-15T03:25:01;6.00;99.90
24011;DHT22;12217;50.792;4.372;2023-03-15T03:27:28;6.00;99.90
24011;DHT22;12217;50.792;4.372;2023-03-15T03:29:54;6.00;99.90
24011;DHT22;12217;50.792;4.372;2023-03-15T03:32:19;5.90;99.90
24011;DHT22;12217;50.792;4.372;2023-03-15T03:34:45;5.80;99.90
24011;DHT22;12217;50.792;4.372;2023-03-15T03:37:19;5.90;99.90
24011;DHT22;12217;50.792;4.372;2023-03-15T03:39:45;6.00;99.90
24011;DHT22;12217;50.792;4.372;2023-03-15T03:42:10;6.10;99.90
24011;DHT22;12217;50.792;4.372;2023-03-15T03:44:36;6.20;99.90
24011;DHT22;12217;50.792;4.372;2023-03-15T03:47:02;6.40;99.90
24011;DHT22;12217;50.792;4.372;2023-03-15T03:49:28;6.30;99.90
24011;DHT22;12217;50.792;4.372;2023-03-15T03:51:54;6.30;99.90
24011;DHT22;12217;50.792;4.372;2023-03-15T03:54:19;6.40;99.90
24011;DHT22;12217;50.792;4.372;2023-03-15T03:56:49;6.50;99.90
24011;DHT22;12217;50.792;4.372;2023-03-15T03:59:15;6.50;99.90
24011;DHT22;12217;50.792;4.372;2023-03-15T04:01:40;6.40;99.90
24011;DHT22;12217;50.792;4.372;2023-03-15T04:04:06;6.60;99.90
24011;DHT22;12217;50.792;4.372;2023-03-15T04:06:33;6.50;99.90
24011;DHT22;12217;50.792;4.372;2023-03-15T04:08:58;6.40;99.90
24011;DHT22;12217;50.792;4.372;2023-03-15T04:11:24;6.30;99.90
24011;DHT22;12217;50.792;4.372;2023-03-15T04:13:54;6.50;99.90
24011;DHT22;12217;50.792;4.372;2023-03-15T04:16:20;6.30;99.90
24011;DHT22;12217;50.792;4.372;2023-03-15T04:18:46;6.40;99.90
24011;DHT22;12217;50.792;4.372;2023-03-15T04:21:11;6.40;99.90
24011;DHT22;12217;50.792;4.372;2023-03-15T04:23:37;6.40;99.90
24011;DHT22;12217;50.792;4.372;2023-03-15T04:26:04;6.40;99.90
24011;DHT22;12217;50.792;4.372;2023-03-15T04:28:32;6.40;99.90
24011;DHT22;12217;50.792;4.372;2023-03-15T04:30:58;6.50;99.90
24011;DHT22;12217;50.792;4.372;2023-03-15T04:33:24;6.50;99.90
24011;DHT22;12217;50.792;4.372;2023-03-15T04:35:50;6.50;99.90
24011;DHT22;12217;50.792;4.372;2023-03-15T04:38:18;6.30;99.90
24011;DHT22;12217;50.792;4.372;2023-03-15T04:40:52;6.30;99.90
24011;DHT22;12217;50.792;4.372;2023-03-15T04:43:19;6.40;99.90
24011;DHT22;12217;50.792;4.372;2023-03-15T04:45:45;6.50;99.90
24011;DHT22;12217;50.792;4.372;2023-03-15T04:48:10;6.50;99.90
24011;DHT22;12217;50.792;4.372;2023-03-15T04:50:36;6.50;99.90
24011;DHT22;12217;50.792;4.372;2023-03-15T04:53:02;6.70;99.90
24011;DHT22;12217;50.792;4.372;2023-03-15T04:55:27;6.80;99.90
24011;DHT22;12217;50.792;4.372;2023-03-15T04:57:53;6.80;99.90
24011;DHT22;12217;50.792;4.372;2023-03-15T05:00:20;6.60;99.90
24011;DHT22;12217;50.792;4.372;2023-03-15T05:02:46;6.60;99.90
24011;DHT22;12217;50.792;4.372;2023-03-15T05:05:20;6.50;99.90
24011;DHT22;12217;50.792;4.372;2023-03-15T05:07:46;6.50;99.90
24011;DHT22;12217;50.792;4.372;2023-03-15T05:10:11;6.60;99.90
24011;DHT22;12217;50.792;4.372;2023-03-15T05:12:37;6.50;99.90
24011;DHT22;12217;50.792;4.372;2023-03-15T05:15:03;6.40;99.90
24011;DHT22;12217;50.792;4.372;2023-03-15T05:17:29;6.50;99.90
24011;DHT22;12217;50.792;4.372;2023-03-15T05:19:54;6.60;99.90
24011;DHT22;12217;50.792;4.372;2023-03-15T05:22:20;6.60;99.90
24011;DHT22;12217;50.792;4.372;2023-03-15T05:24:50;6.60;99.90
24011;DHT22;12217;50.792;4.372;2023-03-15T05:27:16;6.60;99.90
24011;DHT22;12217;50.792;4.372;2023-03-15T05:29:41;6.50;99.90
24011;DHT22;12217;50.792;4.372;2023-03-15T05:32:07;6.50;99.90
24011;DHT22;12217;50.792;4.372;2023-03-15T05:34:33;6.40;99.90
24011;DHT22;12217;50.792;4.372;2023-03-15T05:36:58;6.30;99.90
24011;DHT22;12217;50.792;4.372;2023-03-15T05:39:24;6.30;99.90
24011;DHT22;12217;50.792;4.372;2023-03-15T05:41:50;6.30;99.90
24011;DHT22;12217;50.792;4.372;2023-03-15T05:44:16;6.20;99.90
24011;DHT22;12217;50.792;4.372;2023-03-15T05:46:42;6.20;99.90
24011;DHT22;12217;50.792;4.372;2023-03-15T05:49:07;6.20;99.90
24011;DHT22;12217;50.792;4.372;2023-03-15T05:51:33;6.20;99.90
24011;DHT22;12217;50.792;4.372;2023-03-15T05:53:59;6.30;99.90
24011;DHT22;12217;50.792;4.372;2023-03-15T05:56:25;6.30;99.90
24011;DHT22;12217;50.792;4.372;2023-03-15T05:58:50;6.20;99.90
24011;DHT22;12217;50.792;4.372;2023-03-15T06:01:16;6.30;99.90
24011;DHT22;12217;50.792;4.372;2023-03-15T06:03:42;6.20;99.90
24011;DHT22;12217;50.792;4.372;2023-03-15T06:06:07;6.20;99.90
24011;DHT22;12217;50.792;4.372;2023-03-15T06:08:33;6.30;99.90
24011;DHT22;12217;50.792;4.372;2023-03-15T06:10:59;6.40;99.90
24011;DHT22;12217;50.792;4.372;2023-03-15T06:13:25;6.40;99.90
24011;DHT22;12217;50.792;4.372;2023-03-15T06:15:50;6.40;99.90
24011;DHT22;12217;50.792;4.372;2023-03-15T06:18:16;6.30;99.90
24011;DHT22;12217;50.792;4.372;2023-03-15T06:20:42;6.40;99.90
24011;DHT22;12217;50.792;4.372;2023-03-15T06:23:08;6.40;99.90
24011;DHT22;12217;50.792;4.372;2023-03-15T06:25:34;6.40;99.90
24011;DHT22;12217;50.792;4.372;2023-03-15T06:28:00;6.50;99.90
24011;DHT22;12217;50.792;4.372;2023-03-15T06:30:26;6.50;99.90
24011;DHT22;12217;50.792;4.372;2023-03-15T06:32:52;6.40;99.90
24011;DHT22;12217;50.792;4.372;2023-03-15T06:35:18;6.50;99.90
24011;DHT22;12217;50.792;4.372;2023-03-15T06:37:43;6.50;99.90
24011;DHT22;12217;50.792;4.372;2023-03-15T06:40:10;6.50;99.90
24011;DHT22;12217;50.792;4.372;2023-03-15T06:42:37;6.60;99.90
24011;DHT22;12217;50.792;4.372;2023-03-15T06:45:04;6.50;99.90
24011;DHT22;12217;50.792;4.372;2023-03-15T06:47:30;6.50;99.90
24011;DHT22;12217;50.792;4.372;2023-03-15T06:49:55;6.60;99.90
24011;DHT22;12217;50.792;4.372;2023-03-15T06:52:21;6.70;99.90
24011;DHT22;12217;50.792;4.372;2023-03-15T06:54:47;6.60;99.90
24011;DHT22;12217;50.792;4.372;2023-03-15T06:57:12;6.60;99.90
24011;DHT22;12217;50.792;4.372;2023-03-15T06:59:38;6.80;99.90
24011;DHT22;12217;50.792;4.372;2023-03-15T07:02:04;6.90;99.90
24011;DHT22;12217;50.792;4.372;2023-03-15T07:04:29;6.90;99.90
24011;DHT22;12217;50.792;4.372;2023-03-15T07:06:55;6.90;99.90
24011;DHT22;12217;50.792;4.372;2023-03-15T07:09:21;7.00;99.90
24011;DHT22;12217;50.792;4.372;2023-03-15T07:11:47;6.90;99.90
24011;DHT22;12217;50.792;4.372;2023-03-15T07:14:12;6.90;99.90
24011;DHT22;12217;50.792;4.372;2023-03-15T07:16:38;6.80;99.90
24011;DHT22;12217;50.792;4.372;2023-03-15T07:19:04;6.80;99.90
24011;DHT22;12217;50.792;4.372;2023-03-15T07:21:29;6.80;99.90
24011;DHT22;12217;50.792;4.372;2023-03-15T07:23:55;7.00;99.90
24011;DHT22;12217;50.792;4.372;2023-03-15T07:26:21;7.00;99.90
24011;DHT22;12217;50.792;4.372;2023-03-15T07:28:46;7.00;99.90
24011;DHT22;12217;50.792;4.372;2023-03-15T07:31:12;6.90;99.90
24011;DHT22;12217;50.792;4.372;2023-03-15T07:33:38;7.10;99.90
24011;DHT22;12217;50.792;4.372;2023-03-15T07:36:05;7.20;99.90
24011;DHT22;12217;50.792;4.372;2023-03-15T07:38:32;7.00;99.90
24011;DHT22;12217;50.792;4.372;2023-03-15T07:41:01;6.70;99.90
24011;DHT22;12217;50.792;4.372;2023-03-15T07:43:27;6.90;99.90
24011;DHT22;12217;50.792;4.372;2023-03-15T07:45:53;7.10;99.90
24011;DHT22;12217;50.792;4.372;2023-03-15T07:48:19;7.20;99.90
24011;DHT22;12217;50.792;4.372;2023-03-15T07:50:45;7.00;99.90
24011;DHT22;12217;50.792;4.372;2023-03-15T07:53:10;7.10;99.90
24011;DHT22;12217;50.792;4.372;2023-03-15T07:55:36;7.20;99.90
24011;DHT22;12217;50.792;4.372;2023-03-15T07:58:02;7.20;99.90
24011;DHT22;12217;50.792;4.372;2023-03-15T08:00:28;7.10;99.90
24011;DHT22;12217;50.792;4.372;2023-03-15T08:02:54;7.00;99.90
24011;DHT22;12217;50.792;4.372;2023-03-15T08:05:19;7.10;99.90
24011;DHT22;12217;50.792;4.372;2023-03-15T08:07:46;7.30;99.90
24011;DHT22;12217;50.792;4.372;2023-03-15T08:10:13;7.50;99.90
24011;DHT22;12217;50.792;4.372;2023-03-15T08:12:39;7.50;99.90
24011;DHT22;12217;50.792;4.372;2023-03-15T08:15:05;7.50;99.90
24011;DHT22;12217;50.792;4.372;2023-03-15T08:17:31;7.70;99.90
24011;DHT22;12217;50.792;4.372;2023-03-15T08:19:56;7.90;99.90
24011;DHT22;12217;50.792;4.372;2023-03-15T08:22:22;8.00;99.90
24011;DHT22;12217;50.792;4.372;2023-03-15T08:24:48;8.20;99.90
24011;DHT22;12217;50.792;4.372;2023-03-15T08:27:14;8.30;99.90
24011;DHT22;12217;50.792;4.372;2023-03-15T08:29:40;8.50;99.90
24011;DHT22;12217;50.792;4.372;2023-03-15T08:32:06;8.50;99.90
24011;DHT22;12217;50.792;4.372;2023-03-15T08:34:35;8.50;99.90
24011;DHT22;12217;50.792;4.372;2023-03-15T08:37:01;8.40;99.90
24011;DHT22;12217;50.792;4.372;2023-03-15T08:39:27;8.40;99.90
24011;DHT22;12217;50.792;4.372;2023-03-15T08:41:52;8.50;99.90
24011;DHT22;12217;50.792;4.372;2023-03-15T08:44:18;8.50;99.90
24011;DHT22;12217;50.792;4.372;2023-03-15T08:46:43;8.50;99.90
24011;DHT22;12217;50.792;4.372;2023-03-15T08:49:09;8.50;99.90
24011;DHT22;12217;50.792;4.372;2023-03-15T08:51:35;8.50;99.90
24011;DHT22;12217;50.792;4.372;2023-03-15T08:54:00;8.60;99.90
24011;DHT22;12217;50.792;4.372;2023-03-15T08:56:28;8.80;99.90
24011;DHT22;12217;50.792;4.372;2023-03-15T08:58:54;8.80;99.90
24011;DHT22;12217;50.792;4.372;2023-03-15T09:01:20;9.00;99.90
24011;DHT22;12217;50.792;4.372;2023-03-15T09:03:45;9.20;99.90
24011;DHT22;12217;50.792;4.372;2023-03-15T09:06:11;9.30;99.90
24011;DHT22;12217;50.792;4.372;2023-03-15T09:08:37;9.40;99.90
24011;DHT22;12217;50.792;4.372;2023-03-15T09:11:02;9.60;99.90
24011;DHT22;12217;50.792;4.372;2023-03-15T09:13:29;9.50;99.90
24011;DHT22;12217;50.792;4.372;2023-03-15T09:15:55;9.30;99.90
24011;DHT22;12217;50.792;4.372;2023-03-15T09:18:22;9.40;99.90
24011;DHT22;12217;50.792;4.372;2023-03-15T09:20:48;9.50;99.90
24011;DHT22;12217;50.792;4.372;2023-03-15T09:23:14;9.70;99.90
24011;DHT22;12217;50.792;4.372;2023-03-15T09:25:40;9.80;99.90
24011;DHT22;12217;50.792;4.372;2023-03-15T09:28:08;9.80;99.90
24011;DHT22;12217;50.792;4.372;2023-03-15T09:30:35;9.90;99.90
24011;DHT22;12217;50.792;4.372;2023-03-15T09:33:01;10.00;99.90
24011;DHT22;12217;50.792;4.372;2023-03-15T09:35:26;10.10;99.90
24011;DHT22;12217;50.792;4.372;2023-03-15T09:37:52;10.30;99.90
24011;DHT22;12217;50.792;4.372;2023-03-15T09:40:31;10.40;99.90
24011;DHT22;12217;50.792;4.372;2023-03-15T09:43:02;10.60;99.90
24011;DHT22;12217;50.792;4.372;2023-03-15T09:45:54;10.60;99.90
24011;DHT22;12217;50.792;4.372;2023-03-15T09:48:29;10.70;99.90
24011;DHT22;12217;50.792;4.372;2023-03-15T09:51:12;10.90;99.90
24011;DHT22;12217;50.792;4.372;2023-03-15T09:56:38;10.60;99.90
24011;DHT22;12217;50.792;4.372;2023-03-15T09:59:05;10.30;99.90
24011;DHT22;12217;50.792;4.372;2023-03-15T10:01:34;9.90;99.90
24011;DHT22;12217;50.792;4.372;2023-03-15T10:04:15;9.80;99.90
24011;DHT22;12217;50.792;4.372;2023-03-15T10:06:48;9.70;99.90
24011;DHT22;12217;50.792;4.372;2023-03-15T10:09:21;9.70;99.90
24011;DHT22;12217;50.792;4.372;2023-03-15T10:12:05;9.80;99.90
24011;DHT22;12217;50.792;4.372;2023-03-15T10:17:14;10.10;99.90
24011;DHT22;12217;50.792;4.372;2023-03-15T10:19:48;10.10;99.90
24011;DHT22;12217;50.792;4.372;2023-03-15T10:27:56;10.30;99.90
24011;DHT22;12217;50.792;4.372;2023-03-15T10:30:24;10.30;99.90
24011;DHT22;12217;50.792;4.372;2023-03-15T10:35:41;10.70;99.90
24011;DHT22;12217;50.792;4.372;2023-03-15T10:38:15;10.90;99.90
24011;DHT22;12217;50.792;4.372;2023-03-15T10:40:53;10.80;99.90
24011;DHT22;12217;50.792;4.372;2023-03-15T10:43:29;11.00;99.90
24011;DHT22;12217;50.792;4.372;2023-03-15T10:46:20;11.20;99.90
24011;DHT22;12217;50.792;4.372;2023-03-15T10:48:57;11.50;99.90
24011;DHT22;12217;50.792;4.372;2023-03-15T10:51:31;11.80;99.90
24011;DHT22;12217;50.792;4.372;2023-03-15T10:53:58;11.90;99.90
24011;DHT22;12217;50.792;4.372;2023-03-15T10:56:27;12.10;99.90
24011;DHT22;12217;50.792;4.372;2023-03-15T10:58:55;12.40;99.90
24011;DHT22;12217;50.792;4.372;2023-03-15T11:01:32;12.80;99.90
24011;DHT22;12217;50.792;4.372;2023-03-15T11:04:23;13.50;99.90
24011;DHT22;12217;50.792;4.372;2023-03-15T11:09:27;15.10;99.90
24011;DHT22;12217;50.792;4.372;2023-03-15T11:12:04;15.70;99.90
24011;DHT22;12217;50.792;4.372;2023-03-15T11:14:43;16.30;99.90
24011;DHT22;12217;50.792;4.372;2023-03-15T11:17:19;16.50;99.90
24011;DHT22;12217;50.792;4.372;2023-03-15T11:22:41;16.40;99.90
24011;DHT22;12217;50.792;4.372;2023-03-15T11:25:17;16.00;99.90
24011;DHT22;12217;50.792;4.372;2023-03-15T11:27:43;15.80;99.00
24011;DHT22;12217;50.792;4.372;2023-03-15T11:30:18;15.90;99.90
24011;DHT22;12217;50.792;4.372;2023-03-15T11:32:46;15.90;96.70
24011;DHT22;12217;50.792;4.372;2023-03-15T11:35:31;15.40;96.40
24011;DHT22;12217;50.792;4.372;2023-03-15T11:38:02;15.60;93.60
24011;DHT22;12217;50.792;4.372;2023-03-15T11:40:32;15.30;90.40
24011;DHT22;12217;50.792;4.372;2023-03-15T11:43:18;14.20;90.40
24011;DHT22;12217;50.792;4.372;2023-03-15T11:45:54;13.70;92.50
24011;DHT22;12217;50.792;4.372;2023-03-15T11:51:06;13.90;93.20
24011;DHT22;12217;50.792;4.372;2023-03-15T11:53:37;13.40;96.80
24011;DHT22;12217;50.792;4.372;2023-03-15T11:56:27;13.80;95.60
24011;DHT22;12217;50.792;4.372;2023-03-15T11:59:08;14.00;91.70
24011;DHT22;12217;50.792;4.372;2023-03-15T12:01:57;14.30;93.80
24011;DHT22;12217;50.792;4.372;2023-03-15T12:07:29;14.80;88.80
24011;DHT22;12217;50.792;4.372;2023-03-15T12:17:58;15.60;83.30
24011;DHT22;12217;50.792;4.372;2023-03-15T12:20:34;16.00;80.70
24011;DHT22;12217;50.792;4.372;2023-03-15T12:28:34;15.90;76.60
24011;DHT22;12217;50.792;4.372;2023-03-15T12:31:03;15.70;81.10
24011;DHT22;12217;50.792;4.372;2023-03-15T12:33:30;16.00;75.80
24011;DHT22;12217;50.792;4.372;2023-03-15T12:36:08;15.60;73.70
24011;DHT22;12217;50.792;4.372;2023-03-15T12:38:37;15.10;79.00
24011;DHT22;12217;50.792;4.372;2023-03-15T12:41:07;14.70;80.70
24011;DHT22;12217;50.792;4.372;2023-03-15T12:43:41;14.30;80.70
24011;DHT22;12217;50.792;4.372;2023-03-15T12:49:13;13.40;88.40
24011;DHT22;12217;50.792;4.372;2023-03-15T12:51:58;13.90;85.00
24011;DHT22;12217;50.792;4.372;2023-03-15T12:57:13;14.20;80.40
24011;DHT22;12217;50.792;4.372;2023-03-15T12:59:49;14.00;79.80
24011;DHT22;12217;50.792;4.372;2023-03-15T13:02:45;14.00;79.20
24011;DHT22;12217;50.792;4.372;2023-03-15T13:08:21;14.50;82.80
24011;DHT22;12217;50.792;4.372;2023-03-15T13:18:33;14.00;83.00
24011;DHT22;12217;50.792;4.372;2023-03-15T13:21:30;14.10;85.00
24011;DHT22;12217;50.792;4.372;2023-03-15T13:23:58;14.00;84.00
24011;DHT22;12217;50.792;4.372;2023-03-15T13:26:34;13.40;84.40
24011;DHT22;12217;50.792;4.372;2023-03-15T13:29:12;12.90;88.90
24011;DHT22;12217;50.792;4.372;2023-03-15T13:31:39;12.90;89.20
24011;DHT22;12217;50.792;4.372;2023-03-15T13:34:23;13.20;91.80
24011;DHT22;12217;50.792;4.372;2023-03-15T13:36:54;13.60;87.90
24011;DHT22;12217;50.792;4.372;2023-03-15T13:39:23;13.90;87.40
24011;DHT22;12217;50.792;4.372;2023-03-15T13:42:16;14.20;85.60
24011;DHT22;12217;50.792;4.372;2023-03-15T13:44:42;14.60;85.30
24011;DHT22;12217;50.792;4.372;2023-03-15T13:47:08;15.10;84.00
24011;DHT22;12217;50.792;4.372;2023-03-15T13:49:43;15.00;78.60
24011;DHT22;12217;50.792;4.372;2023-03-15T13:52:09;14.80;77.80
24011;DHT22;12217;50.792;4.372;2023-03-15T13:54:37;14.20;82.60
24011;DHT22;12217;50.792;4.372;2023-03-15T13:57:11;14.20;83.40
24011;DHT22;12217;50.792;4.372;2023-03-15T13:59:45;14.00;83.40
24011;DHT22;12217;50.792;4.372;2023-03-15T14:02:20;14.20;85.90
24011;DHT22;12217;50.792;4.372;2023-03-15T14:05:02;14.50;85.40
24011;DHT22;12217;50.792;4.372;2023-03-15T14:07:43;14.70;81.70
24011;DHT22;12217;50.792;4.372;2023-03-15T14:12:47;14.60;83.80
24011;DHT22;12217;50.792;4.372;2023-03-15T14:15:34;13.70;81.50
24011;DHT22;12217;50.792;4.372;2023-03-15T14:20:56;12.40;89.20
24011;DHT22;12217;50.792;4.372;2023-03-15T14:23:25;12.00;91.30
24011;DHT22;12217;50.792;4.372;2023-03-15T14:26:00;11.80;92.50
24011;DHT22;12217;50.792;4.372;2023-03-15T14:28:30;12.00;93.80
24011;DHT22;12217;50.792;4.372;2023-03-15T14:30:57;12.30;93.90
24011;DHT22;12217;50.792;4.372;2023-03-15T14:33:30;12.60;92.30
24011;DHT22;12217;50.792;4.372;2023-03-15T14:36:00;12.80;92.00
24011;DHT22;12217;50.792;4.372;2023-03-15T14:38:31;12.70;91.30
24011;DHT22;12217;50.792;4.372;2023-03-15T14:41:22;12.60;91.70
24011;DHT22;12217;50.792;4.372;2023-03-15T14:43:49;12.60;92.30
24011;DHT22;12217;50.792;4.372;2023-03-15T14:46:15;12.80;91.20
24011;DHT22;12217;50.792;4.372;2023-03-15T14:48:41;12.80;93.40
24011;DHT22;12217;50.792;4.372;2023-03-15T14:51:16;13.30;93.20
24011;DHT22;12217;50.792;4.372;2023-03-15T14:53:43;13.30;88.70
24011;DHT22;12217;50.792;4.372;2023-03-15T14:56:11;13.40;90.20
24011;DHT22;12217;50.792;4.372;2023-03-15T14:58:38;13.20;88.00
24011;DHT22;12217;50.792;4.372;2023-03-15T15:01:03;12.60;89.70
24011;DHT22;12217;50.792;4.372;2023-03-15T15:03:36;12.40;90.90
24011;DHT22;12217;50.792;4.372;2023-03-15T15:06:04;12.50;91.70
24011;DHT22;12217;50.792;4.372;2023-03-15T15:08:32;12.70;91.40
24011;DHT22;12217;50.792;4.372;2023-03-15T15:10:58;12.70;90.90
24011;DHT22;12217;50.792;4.372;2023-03-15T15:13:27;12.80;90.50
24011;DHT22;12217;50.792;4.372;2023-03-15T15:15:53;12.70;90.50
24011;DHT22;12217;50.792;4.372;2023-03-15T15:18:20;12.70;91.40
24011;DHT22;12217;50.792;4.372;2023-03-15T15:20:46;12.50;89.60
24011;DHT22;12217;50.792;4.372;2023-03-15T15:23:18;12.50;88.10
24011;DHT22;12217;50.792;4.372;2023-03-15T15:25:45;12.40;89.20
24011;DHT22;12217;50.792;4.372;2023-03-15T15:28:13;12.30;91.10
24011;DHT22;12217;50.792;4.372;2023-03-15T15:30:38;12.40;91.00
24011;DHT22;12217;50.792;4.372;2023-03-15T15:33:04;12.60;91.20
24011;DHT22;12217;50.792;4.372;2023-03-15T15:35:30;12.80;90.40
24011;DHT22;12217;50.792;4.372;2023-03-15T15:37:55;13.00;90.30
24011;DHT22;12217;50.792;4.372;2023-03-15T15:40:29;13.20;88.60
24011;DHT22;12217;50.792;4.372;2023-03-15T15:42:56;13.30;86.60
24011;DHT22;12217;50.792;4.372;2023-03-15T15:45:22;12.80;89.40
24011;DHT22;12217;50.792;4.372;2023-03-15T15:47:50;12.60;91.30
24011;DHT22;12217;50.792;4.372;2023-03-15T15:50:18;12.50;91.90
24011;DHT22;12217;50.792;4.372;2023-03-15T15:52:47;12.60;92.30
24011;DHT22;12217;50.792;4.372;2023-03-15T15:55:19;12.40;92.00
24011;DHT22;12217;50.792;4.372;2023-03-15T15:57:47;12.40;92.00
24011;DHT22;12217;50.792;4.372;2023-03-15T16:00:17;12.60;91.20
24011;DHT22;12217;50.792;4.372;2023-03-15T16:02:44;13.00;92.00
24011;DHT22;12217;50.792;4.372;2023-03-15T16:05:10;13.40;90.10
24011;DHT22;12217;50.792;4.372;2023-03-15T16:07:37;13.30;90.30
24011;DHT22;12217;50.792;4.372;2023-03-15T16:10:03;12.90;90.40
24011;DHT22;12217;50.792;4.372;2023-03-15T16:12:29;12.90;91.20
24011;DHT22;12217;50.792;4.372;2023-03-15T16:14:57;13.10;92.10
24011;DHT22;12217;50.792;4.372;2023-03-15T16:17:23;13.00;91.00
24011;DHT22;12217;50.792;4.372;2023-03-15T16:19:50;13.20;90.20
24011;DHT22;12217;50.792;4.372;2023-03-15T16:22:17;13.30;91.30
24011;DHT22;12217;50.792;4.372;2023-03-15T16:24:45;13.30;90.50
24011;DHT22;12217;50.792;4.372;2023-03-15T16:27:17;13.30;91.00
24011;DHT22;12217;50.792;4.372;2023-03-15T16:29:47;13.30;91.30
24011;DHT22;12217;50.792;4.372;2023-03-15T16:32:18;13.40;90.80
24011;DHT22;12217;50.792;4.372;2023-03-15T16:34:45;13.50;89.70
24011;DHT22;12217;50.792;4.372;2023-03-15T16:37:16;13.30;90.30
24011;DHT22;12217;50.792;4.372;2023-03-15T16:39:45;13.20;90.00
24011;DHT22;12217;50.792;4.372;2023-03-15T16:42:12;13.10;90.60
24011;DHT22;12217;50.792;4.372;2023-03-15T16:44:38;12.80;90.40
24011;DHT22;12217;50.792;4.372;2023-03-15T16:47:05;12.60;91.80
24011;DHT22;12217;50.792;4.372;2023-03-15T16:49:30;12.50;91.60
24011;DHT22;12217;50.792;4.372;2023-03-15T16:51:57;12.40;91.30
24011;DHT22;12217;50.792;4.372;2023-03-15T16:54:23;12.50;91.40